createdAt,value
2023-01-28T00:01:55.282Z,102604.84
2023-01-28T00:04:22.165Z,102604.41
2023-01-28T00:06:49.077Z,102611.59
2023-01-28T00:09:15.940Z,102610.72
2023-01-28T00:11:42.822Z,102620.16
2023-01-28T00:14:12.456Z,102611.25
2023-01-28T00:16:39.475Z,102612.25
2023-01-28T00:19:06.364Z,102613.59
2023-01-28T00:21:33.340Z,102609.22
2023-01-28T00:24:00.279Z,102620.34
2023-01-28T00:26:27.350Z,102617.16
2023-01-28T00:28:54.538Z,102604.69
2023-01-28T00:31:25.034Z,102609.50
2023-01-28T00:33:52.177Z,102603.25
2023-01-28T00:36:21.427Z,102600.50
2023-01-28T00:38:54.042Z,102589.91
2023-01-28T00:41:24.083Z,102590.72
2023-01-28T00:43:52.256Z,102587.94
2023-01-28T00:46:21.051Z,102590.28
2023-01-28T00:48:48.692Z,102601.78
2023-01-28T00:51:17.824Z,102592.50
2023-01-28T00:53:45.002Z,102588.47
2023-01-28T00:56:16.379Z,102585.91
2023-01-28T00:58:43.543Z,102589.75
2023-01-28T01:01:18.431Z,102586.72
2023-01-28T01:03:46.064Z,102600.69
2023-01-28T01:06:14.921Z,102591.69
2023-01-28T01:08:42.979Z,102588.41
2023-01-28T01:11:11.954Z,102600.25
2023-01-28T01:13:38.901Z,102596.84
2023-01-28T01:16:09.636Z,102602.91
2023-01-28T01:18:37.730Z,102583.59
2023-01-28T01:21:13.458Z,102591.00
2023-01-28T01:23:40.409Z,102592.78
2023-01-28T01:26:07.598Z,102595.34
2023-01-28T01:28:35.135Z,102600.84
2023-01-28T01:31:08.557Z,102602.56
2023-01-28T01:33:35.586Z,102601.56
2023-01-28T01:36:02.598Z,102601.50
2023-01-28T01:38:30.066Z,102604.69
2023-01-28T01:40:59.436Z,102598.47
2023-01-28T01:43:53.938Z,102597.09
2023-01-28T01:46:48.508Z,102600.94
2023-01-28T01:49:26.991Z,102599.25
2023-01-28T01:52:09.737Z,102601.56
2023-01-28T01:54:38.795Z,102581.16
2023-01-28T01:57:10.325Z,102602.88
2023-01-28T01:59:40.060Z,102589.81
2023-01-28T02:02:09.845Z,102599.31
2023-01-28T02:04:44.543Z,102597.09
2023-01-28T02:07:17.044Z,102595.44
2023-01-28T02:09:43.940Z,102596.03
2023-01-28T02:12:24.952Z,102593.09
2023-01-28T02:15:12.723Z,102587.03
2023-01-28T02:17:42.300Z,102600.91
2023-01-28T02:20:17.939Z,102580.63
2023-01-28T02:23:21.563Z,102597.97
2023-01-28T02:26:31.847Z,102599.84
2023-01-28T02:29:41.401Z,102598.16
2023-01-28T02:32:24.674Z,102597.16
2023-01-28T02:35:16.591Z,102588.72
2023-01-28T02:37:55.777Z,102589.53
2023-01-28T02:40:30.203Z,102597.03
2023-01-28T02:42:58.268Z,102598.28
2023-01-28T02:45:50.252Z,102600.22
2023-01-28T02:48:19.871Z,102593.56
2023-01-28T02:51:24.206Z,102591.16
2023-01-28T02:54:01.073Z,102586.19
2023-01-28T02:56:38.886Z,102577.81
2023-01-28T02:59:34.118Z,102581.34
2023-01-28T03:02:18.509Z,102580.75
2023-01-28T03:05:08.030Z,102575.50
2023-01-28T03:07:38.752Z,102573.81
2023-01-28T03:10:11.241Z,102579.97
2023-01-28T03:13:00.180Z,102575.50
2023-01-28T03:15:51.555Z,102582.16
2023-01-28T03:18:44.596Z,102578.59
2023-01-28T03:21:39.572Z,102574.16
2023-01-28T03:24:45.334Z,102585.28
2023-01-28T03:27:58.931Z,102580.03
2023-01-28T03:31:09.866Z,102578.44
2023-01-28T03:34:03.968Z,102574.97
2023-01-28T03:36:50.138Z,102569.97
2023-01-28T03:39:41.331Z,102567.50
2023-01-28T03:42:14.157Z,102574.53
2023-01-28T03:45:05.448Z,102573.63
2023-01-28T03:47:34.049Z,102576.28
2023-01-28T03:50:06.650Z,102574.81
2023-01-28T03:52:40.204Z,102580.91
2023-01-28T03:55:21.526Z,102580.91
2023-01-28T03:57:48.472Z,102582.78
2023-01-28T04:00:18.188Z,102575.03
2023-01-28T04:02:46.205Z,102571.69
2023-01-28T04:05:19.786Z,102577.00
2023-01-28T04:07:52.249Z,102582.06
2023-01-28T04:10:27.735Z,102578.88
2023-01-28T04:12:57.977Z,102590.19
2023-01-28T04:15:26.060Z,102586.78
2023-01-28T04:17:54.836Z,102585.03
2023-01-28T04:20:26.583Z,102581.56
2023-01-28T04:22:54.470Z,102584.84
2023-01-28T04:25:22.766Z,102588.03
2023-01-28T04:27:49.762Z,102590.19
2023-01-28T04:30:23.226Z,102586.63
2023-01-28T04:33:16.600Z,102588.84
2023-01-28T04:35:54.883Z,102589.47
2023-01-28T04:38:32.697Z,102582.72
2023-01-28T04:41:06.265Z,102588.94
2023-01-28T04:43:35.137Z,102583.88
2023-01-28T04:46:26.407Z,102593.59
2023-01-28T04:49:03.493Z,102595.44
2023-01-28T04:51:39.388Z,102589.47
2023-01-28T04:54:14.375Z,102589.91
2023-01-28T04:56:41.506Z,102584.75
2023-01-28T04:59:09.616Z,102585.47
2023-01-28T05:01:36.595Z,102585.75
2023-01-28T05:04:05.687Z,102587.50
2023-01-28T05:06:35.306Z,102588.50
2023-01-28T05:09:08.773Z,102587.44
2023-01-28T05:11:38.711Z,102577.81
2023-01-28T05:14:06.250Z,102573.44
2023-01-28T05:16:40.300Z,102585.84
2023-01-28T05:19:07.552Z,102591.88
2023-01-28T05:21:38.795Z,102592.06
2023-01-28T05:24:12.227Z,102581.63
2023-01-28T05:26:39.156Z,102582.44
2023-01-28T05:29:06.136Z,102581.72
2023-01-28T05:31:33.640Z,102578.34
2023-01-28T05:34:00.789Z,102577.72
2023-01-28T05:36:27.739Z,102581.28
2023-01-28T05:38:55.791Z,102574.88
2023-01-28T05:41:22.795Z,102569.97
2023-01-28T05:43:56.173Z,102573.38
2023-01-28T05:46:49.015Z,102583.75
2023-01-28T05:49:35.933Z,102577.63
2023-01-28T05:52:21.291Z,102563.13
2023-01-28T05:54:48.349Z,102569.16
2023-01-28T05:57:15.322Z,102571.84
2023-01-28T05:59:42.285Z,102567.66
2023-01-28T06:02:09.304Z,102571.94
2023-01-28T06:04:36.821Z,102573.88
2023-01-28T06:07:06.303Z,102580.63
2023-01-28T06:09:33.340Z,102583.59
2023-01-28T06:12:00.867Z,102579.50
2023-01-28T06:14:28.586Z,102577.44
2023-01-28T06:17:13.957Z,102558.88
2023-01-28T06:19:48.048Z,102569.63
2023-01-28T06:22:16.187Z,102552.19
2023-01-28T06:24:43.109Z,102568.28
2023-01-28T06:27:10.011Z,102568.38
2023-01-28T06:29:36.930Z,102574.59
2023-01-28T06:32:04.246Z,102575.69
2023-01-28T06:34:31.390Z,102580.03
2023-01-28T06:36:58.321Z,102581.03
2023-01-28T06:39:27.017Z,102578.53
2023-01-28T06:41:54.790Z,102577.72
2023-01-28T06:44:23.487Z,102589.75
2023-01-28T06:46:50.518Z,102582.63
2023-01-28T06:49:17.535Z,102588.75
2023-01-28T06:51:44.401Z,102581.91
2023-01-28T06:54:11.298Z,102588.88
2023-01-28T06:56:38.181Z,102588.94
2023-01-28T06:59:05.193Z,102589.03
2023-01-28T07:01:32.197Z,102592.41
2023-01-28T07:03:59.170Z,102591.25
2023-01-28T07:06:26.060Z,102596.41
2023-01-28T07:08:52.959Z,102614.47
2023-01-28T07:11:19.878Z,102580.13
2023-01-28T07:13:47.608Z,102585.75
2023-01-28T07:16:14.627Z,102590.09
2023-01-28T07:18:41.564Z,102601.56
2023-01-28T07:21:08.451Z,102608.44
2023-01-28T07:23:35.369Z,102593.75
2023-01-28T07:26:03.994Z,102598.19
2023-01-28T07:28:31.043Z,102599.63
2023-01-28T07:30:57.979Z,102601.78
2023-01-28T07:33:25.524Z,102598.47
2023-01-28T07:35:52.451Z,102607.16
2023-01-28T07:38:19.317Z,102603.00
2023-01-28T07:40:46.990Z,102610.84
2023-01-28T07:43:14.146Z,102609.97
2023-01-28T07:45:41.483Z,102616.63
2023-01-28T07:48:11.630Z,102614.19
2023-01-28T07:50:38.803Z,102610.66
2023-01-28T07:53:10.761Z,102612.00
2023-01-28T07:55:38.377Z,102611.19
2023-01-28T07:58:08.265Z,102620.00
2023-01-28T08:00:37.290Z,102617.69
2023-01-28T08:03:17.993Z,102623.56
2023-01-28T08:05:48.094Z,102625.72
2023-01-28T08:08:15.326Z,102626.22
2023-01-28T08:10:44.051Z,102636.47
2023-01-28T08:13:12.480Z,102637.69
2023-01-28T08:15:39.875Z,102635.41
2023-01-28T08:18:09.168Z,102605.69
2023-01-28T08:20:36.697Z,102627.31
2023-01-28T08:23:13.402Z,102634.63
2023-01-28T08:25:40.389Z,102633.00
2023-01-28T08:28:08.296Z,102626.88
2023-01-28T08:30:38.183Z,102636.81
2023-01-28T08:33:07.728Z,102632.66
2023-01-28T08:35:35.110Z,102644.56
2023-01-28T08:38:03.464Z,102650.72
2023-01-28T08:40:30.872Z,102645.56
2023-01-28T08:42:58.064Z,102642.97
2023-01-28T08:45:27.994Z,102644.56
2023-01-28T08:48:06.913Z,102649.75
2023-01-28T08:50:38.555Z,102656.59
2023-01-28T08:53:18.036Z,102660.69
2023-01-28T08:55:46.483Z,102668.34
2023-01-28T08:58:16.724Z,102652.69
2023-01-28T09:00:46.793Z,102658.31
2023-01-28T09:03:13.863Z,102670.22
2023-01-28T09:05:41.057Z,102658.34
2023-01-28T09:08:14.749Z,102682.84
2023-01-28T09:10:42.549Z,102691.41
2023-01-28T09:13:15.872Z,102687.91
2023-01-28T09:15:43.387Z,102704.50
2023-01-28T09:18:10.747Z,102702.97
2023-01-28T09:20:38.521Z,102717.94
2023-01-28T09:23:06.186Z,102710.66
2023-01-28T09:25:33.230Z,102712.72
2023-01-28T09:28:00.303Z,102705.41
2023-01-28T09:30:28.149Z,102703.97
2023-01-28T09:32:56.533Z,102705.13
2023-01-28T09:35:24.498Z,102707.00
2023-01-28T09:37:52.038Z,102702.66
2023-01-28T09:40:37.684Z,102691.94
2023-01-28T09:43:25.764Z,102706.72
2023-01-28T09:45:56.190Z,102711.28
2023-01-28T09:48:30.788Z,102697.22
2023-01-28T09:50:57.764Z,102710.00
2023-01-28T09:53:35.615Z,102692.75
2023-01-28T09:56:07.213Z,102713.03
2023-01-28T09:58:34.209Z,102705.38
2023-01-28T10:01:44.833Z,102693.41
2023-01-28T10:05:03.467Z,102674.88
2023-01-28T10:08:02.011Z,102687.59
2023-01-28T10:10:47.390Z,102676.28
2023-01-28T10:13:30.851Z,102686.88
2023-01-28T10:16:24.882Z,102687.16
2023-01-28T10:19:24.465Z,102685.59
2023-01-28T10:22:00.408Z,102686.53
2023-01-28T10:24:37.127Z,102693.63
2023-01-28T10:27:16.945Z,102694.34
2023-01-28T10:29:46.458Z,102696.88
2023-01-28T10:32:31.339Z,102700.34
2023-01-28T10:34:59.759Z,102682.13
2023-01-28T10:37:27.871Z,102688.38
2023-01-28T10:39:58.836Z,102683.28
2023-01-28T10:42:33.986Z,102686.84
2023-01-28T10:45:19.629Z,102687.03
2023-01-28T10:47:50.429Z,102677.69
2023-01-28T10:50:29.260Z,102674.28
2023-01-28T10:53:02.256Z,102677.84
2023-01-28T10:55:52.813Z,102671.69
2023-01-28T10:58:25.909Z,102664.91
2023-01-28T11:01:00.665Z,102662.41
2023-01-28T11:03:27.903Z,102666.97
2023-01-28T11:05:55.801Z,102671.31
2023-01-28T11:08:25.414Z,102653.31
2023-01-28T11:10:53.994Z,102656.84
2023-01-28T11:13:27.079Z,102648.84
2023-01-28T11:16:06.711Z,102647.94
2023-01-28T11:18:41.264Z,102639.47
2023-01-28T11:21:19.486Z,102641.25
2023-01-28T11:24:03.089Z,102644.63
2023-01-28T11:26:35.110Z,102637.34
2023-01-28T11:29:02.138Z,102632.53
2023-01-28T11:31:29.378Z,102639.41
2023-01-28T11:33:59.756Z,102631.69
2023-01-28T11:36:32.206Z,102629.22
2023-01-28T11:39:16.515Z,102626.78
2023-01-28T11:41:43.450Z,102612.88
2023-01-28T11:44:25.914Z,102609.91
2023-01-28T11:47:16.858Z,102609.31
2023-01-28T11:50:36.841Z,102604.13
2023-01-28T11:53:32.882Z,102584.91
2023-01-28T11:56:51.175Z,102583.69
2023-01-28T11:59:28.650Z,102583.06
2023-01-28T12:02:02.859Z,102563.22
2023-01-28T12:05:04.506Z,102554.78
2023-01-28T12:07:44.645Z,102562.66
2023-01-28T12:10:26.423Z,102561.19
2023-01-28T12:13:03.735Z,102545.81
2023-01-28T12:16:07.169Z,102537.97
2023-01-28T12:19:07.951Z,102547.50
2023-01-28T12:22:13.557Z,102542.56
2023-01-28T12:25:22.959Z,102525.56
2023-01-28T12:28:10.019Z,102519.75
2023-01-28T12:31:05.177Z,102503.38
2023-01-28T12:33:37.500Z,102495.91
2023-01-28T12:36:44.926Z,102485.88
2023-01-28T12:40:15.331Z,102482.16
2023-01-28T12:42:51.268Z,102476.47
2023-01-28T12:45:29.353Z,102480.16
2023-01-28T12:48:16.284Z,102478.44
2023-01-28T12:50:52.929Z,102477.06
2023-01-28T12:53:26.457Z,102472.88
2023-01-28T12:56:00.830Z,102473.84
2023-01-28T12:58:40.832Z,102477.41
2023-01-28T13:01:17.922Z,102485.31
2023-01-28T13:04:04.336Z,102485.22
2023-01-28T13:06:44.329Z,102488.56
2023-01-28T13:09:25.145Z,102487.63
2023-01-28T13:11:57.183Z,102490.97
2023-01-28T13:14:30.397Z,102494.31
2023-01-28T13:17:09.207Z,102502.66
2023-01-28T13:19:41.545Z,102496.50
2023-01-28T13:22:36.068Z,102503.16
2023-01-28T13:25:28.080Z,102522.72
2023-01-28T13:28:01.615Z,102503.38
2023-01-28T13:30:34.656Z,102506.72
2023-01-28T13:33:25.926Z,102512.63
2023-01-28T13:35:55.525Z,102521.16
2023-01-28T13:38:22.863Z,102515.72
2023-01-28T13:40:56.832Z,102511.25
2023-01-28T13:43:37.680Z,102500.56
2023-01-28T13:46:27.328Z,102491.78
2023-01-28T13:48:57.950Z,102469.00
2023-01-28T13:51:32.623Z,102478.50
2023-01-28T13:54:14.086Z,102476.53
2023-01-28T13:56:59.570Z,102484.00
2023-01-28T13:59:49.616Z,102500.25
2023-01-28T14:02:47.823Z,102480.94
2023-01-28T14:05:50.337Z,102471.91
2023-01-28T14:08:52.067Z,102479.28
2023-01-28T14:11:56.524Z,102478.16
2023-01-28T14:15:00.562Z,102487.34
2023-01-28T14:17:35.973Z,102489.13
2023-01-28T14:20:05.054Z,102492.59
2023-01-28T14:22:32.013Z,102501.97
2023-01-28T14:25:02.194Z,102506.41
2023-01-28T14:27:37.886Z,102490.50
2023-01-28T14:30:42.600Z,102503.78
2023-01-28T14:33:11.952Z,102499.34
2023-01-28T14:35:45.731Z,102493.78
2023-01-28T14:38:23.437Z,102510.19
2023-01-28T14:40:52.593Z,102506.47
2023-01-28T14:43:23.889Z,102523.63
2023-01-28T14:46:06.112Z,102515.63
2023-01-28T14:48:53.039Z,102524.84
2023-01-28T14:52:17.643Z,102536.69
2023-01-28T14:55:04.747Z,102533.94
2023-01-28T14:57:46.894Z,102530.31
2023-01-28T15:00:34.604Z,102535.97
2023-01-28T15:03:24.237Z,102540.72
2023-01-28T15:06:07.042Z,102535.13
2023-01-28T15:08:35.802Z,102528.75
2023-01-28T15:11:03.253Z,102522.53
2023-01-28T15:13:37.402Z,102534.28
2023-01-28T15:16:05.879Z,102533.22
2023-01-28T15:18:37.347Z,102519.06
2023-01-28T15:21:04.997Z,102513.75
2023-01-28T15:23:42.167Z,102510.84
2023-01-28T15:26:28.385Z,102507.91
2023-01-28T15:28:56.459Z,102511.13
2023-01-28T15:31:39.036Z,102514.16
2023-01-28T15:34:19.599Z,102520.75
2023-01-28T15:36:49.636Z,102504.56
2023-01-28T15:39:20.970Z,102512.47
2023-01-28T15:42:08.140Z,102511.94
2023-01-28T15:44:44.741Z,102511.72
2023-01-28T15:47:32.680Z,102521.84
2023-01-28T15:50:16.893Z,102524.19
2023-01-28T15:52:45.391Z,102510.63
2023-01-28T15:55:43.868Z,102524.22
2023-01-28T15:58:30.099Z,102526.53
2023-01-28T16:01:09.066Z,102516.88
2023-01-28T16:03:41.648Z,102524.31
2023-01-28T16:06:16.680Z,102530.91
2023-01-28T16:08:54.538Z,102544.31
2023-01-28T16:11:25.204Z,102546.63
2023-01-28T16:13:52.949Z,102547.34
2023-01-28T16:16:34.457Z,102544.47
2023-01-28T16:19:05.403Z,102541.31
2023-01-28T16:21:37.959Z,102543.03
2023-01-28T16:24:22.660Z,102547.00
2023-01-28T16:27:07.270Z,102543.25
2023-01-28T16:29:34.252Z,102550.63
2023-01-28T16:32:01.568Z,102553.81
2023-01-28T16:34:28.594Z,102553.50
2023-01-28T16:36:59.729Z,102548.06
2023-01-28T16:39:26.588Z,102547.88
2023-01-28T16:41:53.945Z,102554.44
2023-01-28T16:44:20.870Z,102548.22
2023-01-28T16:46:47.886Z,102529.97
2023-01-28T16:49:14.829Z,102512.53
2023-01-28T16:51:44.013Z,102500.34
2023-01-28T16:54:16.107Z,102495.50
2023-01-28T16:56:46.548Z,102500.84
2023-01-28T16:59:15.983Z,102504.13
2023-01-28T17:01:44.830Z,102489.28
2023-01-28T17:04:13.123Z,102498.59
2023-01-28T17:06:45.157Z,102492.97
2023-01-28T17:09:14.319Z,102505.91
2023-01-28T17:11:41.429Z,102502.69
2023-01-28T17:14:10.248Z,102506.25
2023-01-28T17:16:37.673Z,102505.06
2023-01-28T17:19:04.826Z,102498.91
2023-01-28T17:21:31.917Z,102511.78
2023-01-28T17:24:01.265Z,102505.97
2023-01-28T17:26:31.032Z,102504.69
2023-01-28T17:28:57.959Z,102506.25
2023-01-28T17:31:26.386Z,102513.75
2023-01-28T17:33:55.782Z,102525.66
2023-01-28T17:36:24.017Z,102530.69
2023-01-28T17:38:51.159Z,102533.16
2023-01-28T17:41:18.485Z,102546.72
2023-01-28T17:43:51.763Z,102535.47
2023-01-28T17:46:19.307Z,102528.44
2023-01-28T17:48:46.235Z,102517.94
2023-01-28T17:51:16.855Z,102525.47
2023-01-28T17:53:51.866Z,102537.25
2023-01-28T17:56:25.915Z,102531.09
2023-01-28T17:58:55.806Z,102531.88
2023-01-28T18:01:25.067Z,102537.00
2023-01-28T18:03:52.266Z,102538.81
2023-01-28T18:06:19.262Z,102538.81
2023-01-28T18:08:46.216Z,102539.81
2023-01-28T18:11:17.098Z,102539.91
2023-01-28T18:13:44.528Z,102525.16
2023-01-28T18:16:16.092Z,102521.31
2023-01-28T18:18:44.306Z,102529.13
2023-01-28T18:21:51.696Z,102526.84
2023-01-28T18:24:20.119Z,102530.50
2023-01-28T18:26:46.989Z,102519.53
2023-01-28T18:29:16.839Z,102518.91
2023-01-28T18:31:43.961Z,102516.63
2023-01-28T18:34:10.906Z,102507.44
2023-01-28T18:36:37.801Z,102507.63
2023-01-28T18:39:04.731Z,102497.34
2023-01-28T18:41:31.640Z,102502.09
2023-01-28T18:43:58.549Z,102505.66
2023-01-28T18:46:25.427Z,102504.84
2023-01-28T18:48:52.312Z,102502.38
2023-01-28T18:51:30.030Z,102511.06
2023-01-28T18:54:03.277Z,102505.91
2023-01-28T18:56:31.837Z,102495.03
2023-01-28T18:59:01.616Z,102485.63
2023-01-28T19:01:30.581Z,102474.31
2023-01-28T19:03:59.008Z,102489.88
2023-01-28T19:06:27.907Z,102487.41
2023-01-28T19:08:58.002Z,102484.53
2023-01-28T19:11:26.968Z,102480.16
2023-01-28T19:13:54.119Z,102485.72
2023-01-28T19:16:21.916Z,102479.75
2023-01-28T19:18:57.979Z,102477.13
2023-01-28T19:21:26.386Z,102481.38
2023-01-28T19:23:58.974Z,102488.19
2023-01-28T19:26:26.952Z,102486.41
2023-01-28T19:28:54.430Z,102492.34
2023-01-28T19:31:22.952Z,102495.84
2023-01-28T19:33:53.890Z,102493.25
2023-01-28T19:36:20.857Z,102481.38
2023-01-28T19:38:47.880Z,102493.97
2023-01-28T19:41:16.959Z,102493.84
2023-01-28T19:43:44.437Z,102502.47
2023-01-28T19:46:15.969Z,102490.28
2023-01-28T19:48:42.976Z,102502.47
2023-01-28T19:51:12.198Z,102499.88
2023-01-28T19:53:40.958Z,102501.75
2023-01-28T19:56:14.579Z,102503.63
2023-01-28T19:58:43.819Z,102501.88
2023-01-28T20:01:18.495Z,102495.91
2023-01-28T20:03:45.982Z,102489.28
2023-01-28T20:06:17.485Z,102493.63
2023-01-28T20:08:45.062Z,102505.63
2023-01-28T20:11:16.101Z,102498.88
2023-01-28T20:13:46.306Z,102499.66
2023-01-28T20:16:22.152Z,102491.94
2023-01-28T20:18:54.599Z,102497.31
2023-01-28T20:21:22.504Z,102483.34
2023-01-28T20:23:51.951Z,102489.56
2023-01-28T20:26:21.699Z,102483.50
2023-01-28T20:28:49.885Z,102498.78
2023-01-28T20:31:18.401Z,102493.03
2023-01-28T20:33:45.457Z,102489.66
2023-01-28T20:36:14.014Z,102485.38
2023-01-28T20:38:44.357Z,102481.94
2023-01-28T20:41:21.645Z,102486.38
2023-01-28T20:43:50.595Z,102480.34
2023-01-28T20:46:27.868Z,102476.19
2023-01-28T20:48:57.821Z,102477.88
2023-01-28T20:51:28.784Z,102482.22
2023-01-28T20:53:57.654Z,102482.22
2023-01-28T20:56:25.986Z,102478.06
2023-01-28T20:59:02.812Z,102473.91
2023-01-28T21:01:35.914Z,102462.94
2023-01-28T21:04:06.953Z,102451.50
2023-01-28T21:06:36.467Z,102461.53
2023-01-28T21:09:04.755Z,102464.97
2023-01-28T21:11:32.239Z,102462.59
2023-01-28T21:13:59.181Z,102458.41
2023-01-28T21:16:26.229Z,102441.78
2023-01-28T21:18:53.149Z,102456.84
2023-01-28T21:21:26.906Z,102450.78
2023-01-28T21:23:56.795Z,102441.38
2023-01-28T21:26:24.378Z,102449.28
2023-01-28T21:28:51.370Z,102441.56
2023-01-28T21:31:23.091Z,102442.44
2023-01-28T21:33:55.092Z,102446.72
2023-01-28T21:36:23.179Z,102456.19
2023-01-28T21:38:59.155Z,102457.00
2023-01-28T21:41:26.990Z,102444.22
2023-01-28T21:43:57.149Z,102447.06
2023-01-28T21:46:31.023Z,102451.72
2023-01-28T21:49:01.176Z,102453.66
2023-01-28T21:51:45.975Z,102454.56
2023-01-28T21:54:19.048Z,102445.84
2023-01-28T21:56:51.260Z,102433.03
2023-01-28T21:59:28.447Z,102425.25
2023-01-28T22:02:13.492Z,102429.50
2023-01-28T22:04:43.916Z,102426.03
2023-01-28T22:07:13.870Z,102421.69
2023-01-28T22:09:42.372Z,102418.13
2023-01-28T22:12:10.076Z,102420.59
2023-01-28T22:14:39.160Z,102421.41
2023-01-28T22:17:09.046Z,102430.13
2023-01-28T22:19:36.010Z,102418.13
2023-01-28T22:22:03.768Z,102412.16
2023-01-28T22:24:30.862Z,102409.69
2023-01-28T22:26:57.873Z,102393.06
2023-01-28T22:29:25.571Z,102396.91
2023-01-28T22:31:53.588Z,102401.22
2023-01-28T22:34:21.691Z,102398.84
2023-01-28T22:36:50.303Z,102392.44
2023-01-28T22:39:18.250Z,102392.91
2023-01-28T22:41:46.105Z,102389.63
2023-01-28T22:44:13.258Z,102371.91
2023-01-28T22:46:40.243Z,102387.91
2023-01-28T22:49:07.261Z,102386.16
2023-01-28T22:51:36.080Z,102391.38
2023-01-28T22:54:03.553Z,102388.03
2023-01-28T22:56:31.711Z,102393.19
2023-01-28T22:59:01.632Z,102374.22
2023-01-28T23:01:29.225Z,102377.00
2023-01-28T23:03:56.614Z,102360.56
2023-01-28T23:06:26.465Z,102361.59
2023-01-28T23:08:54.385Z,102359.13
2023-01-28T23:11:27.966Z,102363.47
2023-01-28T23:14:20.120Z,102348.88
2023-01-28T23:17:06.666Z,102342.06
2023-01-28T23:19:52.920Z,102330.06
2023-01-28T23:22:46.755Z,102334.34
2023-01-28T23:25:15.313Z,102327.47
2023-01-28T23:27:43.340Z,102311.03
2023-01-28T23:30:12.229Z,102320.72
2023-01-28T23:32:42.920Z,102315.75
2023-01-28T23:35:10.918Z,102320.19
2023-01-28T23:37:38.210Z,102309.69
2023-01-28T23:40:06.541Z,102323.75
2023-01-28T23:42:33.429Z,102321.16
2023-01-28T23:45:00.328Z,102312.63
2023-01-28T23:47:27.200Z,102316.06
2023-01-28T23:49:54.299Z,102316.06
2023-01-28T23:52:21.213Z,102312.72
2023-01-28T23:54:48.107Z,102304.16
2023-01-28T23:57:15.005Z,102307.56
2023-01-28T23:59:42.456Z,102302.41
